LEMG/AGP METAR and TAF weather

Enter ICAO airport designator
Station Type Date Time Source
LEMG METAR 2020/04/03 23:30 UTC NOAA

LEMG 032330Z 09008KT 9999 FEW017 14/12 Q1017 NOSIG


Station Type Date Time Source
LEMG Decoded METAR 2020/04/03 23:30 UTC NOAA

Malaga / Aeropuerto, Spain (LEMG) 36-40N 004-29W 7M
Apr 03, 2020 - 07:30 PM EDT / 2020.04.03 2330 UTC
Wind: from the E (090 degrees) at 9 MPH (8 KT):0
Visibility: greater than 7 mile(s):0
Sky conditions: mostly clear
Temperature: 57 F (14 C)
Dew Point: 53 F (12 C)
Relative Humidity: 87%
Pressure (altimeter): 30.03 in. Hg (1017 hPa)
ob: LEMG 032330Z 09008KT 9999 FEW017 14/12 Q1017 NOSIG
cycle: 23

Station Type Date Time Source
LEMG TAF 2020/04/03 18:27 UTC NOAA

TAF LEMG 031700Z 0318/0418 11009KT 9999 FEW030 TX18/0413Z TN12/0406Z PROB40
TEMPO 0320/0324 VRB03KT PROB30
TEMPO 0321/0406 4000 BR BKN012 PROB40
TEMPO 0408/0413 12016G26KT

Example: see airport list